Time;durP1;ratioP1;P1;durP2;ratioP2;P2;SDS_P1;SDS_P2;PMS_P1;PMS_P2;Temp;Humidity;BMP_temperature;BMP_pressure;BME280_temperature;BME280_humidity;BME280_pressure;Samples;Min_cycle;Max_cycle;Signal;HPM_P1;HPM_P2
2022/07/03 00:01:32;;;;;;;0.00;0.00;;;20.70;52.90;;;;;;5078732;28;20050;-73
2022/07/03 00:03:58;;;;;;;0.88;0.50;;;20.90;52.50;;;;;;5087176;28;20374;-73
2022/07/03 00:06:26;;;;;;;0.00;0.00;;;21.10;51.10;;;;;;5115369;28;20069;-73
2022/07/03 00:08:53;;;;;;;8.02;2.40;;;21.40;49.80;;;;;;5114674;28;20019;-73
2022/07/03 00:11:20;;;;;;;0.00;0.00;;;21.90;48.10;;;;;;5080134;28;20449;-73
2022/07/03 00:13:46;;;;;;;0.00;0.00;;;22.10;48.70;;;;;;5076328;28;20036;-73
2022/07/03 00:16:12;;;;;;;0.20;0.20;;;22.20;48.80;;;;;;5078097;28;20567;-73
2022/07/03 00:18:38;;;;;;;0.00;0.00;;;22.60;48.10;;;;;;5093852;28;20050;-73
2022/07/03 00:21:07;;;;;;;0.00;0.00;;;22.90;48.40;;;;;;5093918;28;20022;-73
2022/07/03 00:23:46;;;;;;;0.00;0.00;;;23.10;48.70;;;;;;5094122;28;20401;-73
2022/07/03 00:26:13;;;;;;;0.00;0.00;;;23.60;47.80;;;;;;5115161;28;20020;-73
2022/07/03 00:28:43;;;;;;;0.00;0.00;;;24.30;47.50;;;;;;5108459;28;20537;-73
2022/07/03 00:31:11;;;;;;;0.00;0.00;;;25.00;47.60;;;;;;5079847;28;20534;-74
2022/07/03 00:33:38;;;;;;;0.00;0.00;;;25.70;45.90;;;;;;5113948;28;20032;-73
2022/07/03 00:36:04;;;;;;;0.00;0.00;;;26.20;44.90;;;;;;5114047;28;20504;-73
2022/07/03 00:38:31;;;;;;;0.00;0.00;;;26.80;42.80;;;;;;5109535;28;20035;-73
2022/07/03 00:40:57;;;;;;;0.00;0.00;;;27.30;39.60;;;;;;5081254;28;20107;-73
2022/07/03 00:43:26;;;;;;;0.00;0.00;;;28.00;41.20;;;;;;5095340;28;20019;-73
2022/07/03 00:45:53;;;;;;;0.00;0.00;;;28.60;40.30;;;;;;5114159;28;20020;-73
2022/07/03 00:48:21;;;;;;;0.00;0.00;;;29.40;40.20;;;;;;5114714;28;20133;-73
2022/07/03 00:50:50;;;;;;;0.03;0.03;;;30.00;38.40;;;;;;5113618;28;20015;-73
2022/07/03 00:53:28;;;;;;;0.00;0.00;;;30.10;38.60;;;;;;5095278;28;20020;-74
2022/07/03 00:55:55;;;;;;;10.63;4.32;;;31.20;38.70;;;;;;5110531;28;20126;-73
2022/07/03 00:58:22;;;;;;;0.00;0.00;;;31.20;36.60;;;;;;5103118;28;20050;-73
2022/07/03 01:00:51;;;;;;;0.00;0.00;;;32.00;36.90;;;;;;5108725;28;20024;-74
2022/07/03 01:03:20;;;;;;;0.00;0.00;;;32.00;33.20;;;;;;5098329;28;20020;-74
2022/07/03 01:05:51;;;;;;;0.10;0.10;;;32.40;33.10;;;;;;5108202;28;20103;-74
2022/07/03 01:08:38;;;;;;;0.10;0.10;;;32.10;31.20;;;;;;5103559;28;20029;-74
2022/07/03 01:11:34;;;;;;;0.00;0.00;;;32.20;34.00;;;;;;5091371;28;20032;-73
2022/07/03 01:14:20;;;;;;;0.13;0.13;;;32.30;34.10;;;;;;5089797;28;20076;-73
2022/07/03 01:17:17;;;;;;;0.00;0.00;;;32.40;30.90;;;;;;5112459;28;20039;-74
2022/07/03 01:19:45;;;;;;;0.00;0.00;;;31.30;32.00;;;;;;5111126;28;20107;-74
2022/07/03 01:22:48;;;;;;;0.00;0.00;;;31.10;32.40;;;;;;5105927;28;20023;-74
2022/07/03 01:25:24;;;;;;;0.00;0.00;;;31.10;32.00;;;;;;5107862;28;20060;-74
2022/07/03 01:28:11;;;;;;;5.22;1.00;;;31.10;32.20;;;;;;5107317;27;20020;-74
2022/07/03 01:30:48;;;;;;;0.22;0.08;;;30.90;32.20;;;;;;5083754;28;20034;-74
2022/07/03 01:33:17;;;;;;;0.95;0.90;;;30.30;33.80;;;;;;5092794;28;20028;-74
2022/07/03 01:36:13;;;;;;;0.00;0.00;;;30.40;33.70;;;;;;5113061;28;20026;-73
2022/07/03 01:38:40;;;;;;;0.00;0.00;;;30.40;32.90;;;;;;5074296;28;20047;-73
2022/07/03 01:41:10;;;;;;;0.38;0.30;;;30.20;31.80;;;;;;5105089;28;20031;-73
2022/07/03 01:43:48;;;;;;;0.00;0.00;;;29.70;32.10;;;;;;5095296;28;20019;-74
2022/07/03 01:46:17;;;;;;;0.20;0.20;;;29.50;34.10;;;;;;5079724;28;20024;-74
2022/07/03 01:48:45;;;;;;;0.68;0.68;;;29.60;32.70;;;;;;5092149;28;20032;-74
2022/07/03 01:51:15;;;;;;;0.68;0.68;;;29.90;33.00;;;;;;5113029;28;20024;-74
2022/07/03 01:53:48;;;;;;;0.10;0.10;;;29.80;32.80;;;;;;5092400;28;20069;-74
2022/07/03 01:56:18;;;;;;;0.43;0.28;;;29.90;32.60;;;;;;5084276;28;20035;-75
2022/07/03 01:58:44;;;;;;;0.30;0.30;;;29.90;32.80;;;;;;5095059;28;20027;-74
2022/07/03 02:01:30;;;;;;;0.00;0.00;;;29.70;32.40;;;;;;5098006;28;20133;-75
2022/07/03 02:04:10;;;;;;;0.00;0.00;;;29.80;32.80;;;;;;5091605;28;20020;-74
2022/07/03 02:07:02;;;;;;;0.47;0.47;;;30.50;31.50;;;;;;5113306;28;20105;-74
2022/07/03 02:09:44;;;;;;;0.00;0.00;;;30.80;31.40;;;;;;5113165;28;20559;-73
2022/07/03 02:12:13;;;;;;;0.00;0.00;;;30.70;31.40;;;;;;5113197;28;20034;-74
2022/07/03 02:14:45;;;;;;;0.00;0.00;;;30.80;31.60;;;;;;5113060;28;20386;-74
2022/07/03 02:17:15;;;;;;;0.00;0.00;;;31.10;31.50;;;;;;5113664;28;20039;-74
2022/07/03 02:20:04;;;;;;;1.55;1.45;;;31.70;31.30;;;;;;5094208;28;20032;-74
2022/07/03 02:22:40;;;;;;;5.72;2.75;;;32.40;30.40;;;;;;5113066;28;20019;-74
2022/07/03 02:25:21;;;;;;;0.00;0.00;;;33.10;29.30;;;;;;5094415;28;20162;-74
2022/07/03 02:27:57;;;;;;;0.05;0.05;;;33.60;29.00;;;;;;5093585;28;20382;-75
2022/07/03 02:30:26;;;;;;;0.70;0.70;;;33.70;28.60;;;;;;5093835;28;20030;-74
2022/07/03 02:32:54;;;;;;;0.00;0.00;;;33.80;28.30;;;;;;5112365;28;20051;-75
2022/07/03 02:35:23;;;;;;;2.30;2.20;;;33.10;28.90;;;;;;5112410;28;20030;-75
2022/07/03 02:38:13;;;;;;;0.00;0.00;;;33.10;29.80;;;;;;5094454;28;20104;-75
2022/07/03 02:40:50;;;;;;;0.13;0.13;;;33.80;29.60;;;;;;5076703;28;20076;-75
2022/07/03 02:43:41;;;;;;;0.00;0.00;;;34.60;29.80;;;;;;5112684;28;20027;-75
2022/07/03 02:49:19;;;;;;;1.33;0.88;;;35.20;28.20;;;;;;5112486;28;20030;-74
2022/07/03 02:52:02;;;;;;;0.60;0.60;;;35.10;28.00;;;;;;5112593;28;20020;-74
2022/07/03 02:54:38;;;;;;;0.17;0.15;;;34.50;28.20;;;;;;5112099;28;20102;-74
2022/07/03 02:57:20;;;;;;;0.30;0.22;;;34.20;28.50;;;;;;5105742;28;20024;-75
2022/07/03 02:59:56;;;;;;;0.03;0.03;;;34.40;28.60;;;;;;5078958;28;20035;-75
2022/07/03 03:02:22;;;;;;;0.00;0.00;;;34.70;28.80;;;;;;5091695;28;20017;-76
2022/07/03 03:05:11;;;;;;;0.15;0.05;;;34.60;28.60;;;;;;5086905;28;20028;-75
2022/07/03 03:08:22;;;;;;;0.00;0.00;;;35.00;28.30;;;;;;5093310;28;20024;-75
2022/07/03 03:10:50;;;;;;;1.02;1.02;;;36.30;26.80;;;;;;5076047;28;20032;-74
2022/07/03 03:13:19;;;;;;;1.27;0.20;;;36.30;25.50;;;;;;5092109;28;20513;-74
2022/07/03 03:15:59;;;;;;;0.00;0.00;;;35.20;26.70;;;;;;5061758;28;20399;-75
2022/07/03 03:18:28;;;;;;;0.00;0.00;;;34.70;27.30;;;;;;5071294;28;20173;-75
2022/07/03 03:20:59;;;;;;;0.00;0.00;;;35.20;27.40;;;;;;5079979;28;20025;-75
2022/07/03 03:23:48;;;;;;;0.00;0.00;;;35.80;27.80;;;;;;5090705;28;20505;-75
2022/07/03 03:26:16;;;;;;;0.00;0.00;;;36.40;27.90;;;;;;5091485;28;20085;-75
2022/07/03 03:28:43;;;;;;;0.00;0.00;;;36.80;26.60;;;;;;5085829;28;20112;-74
2022/07/03 03:31:10;;;;;;;0.43;0.10;;;36.70;26.70;;;;;;5085725;28;20115;-74
2022/07/03 03:33:50;;;;;;;0.40;0.10;;;37.30;26.60;;;;;;5082601;28;20020;-74
2022/07/03 03:36:18;;;;;;;0.00;0.00;;;37.20;26.70;;;;;;5083846;28;20024;-75
2022/07/03 03:38:46;;;;;;;0.00;0.00;;;37.50;27.20;;;;;;5063643;28;20033;-75
2022/07/03 03:41:12;;;;;;;4.75;0.75;;;37.40;27.00;;;;;;5077980;28;20483;-74
2022/07/03 03:43:39;;;;;;;0.00;0.00;;;36.50;26.50;;;;;;5089506;28;20359;-75
2022/07/03 03:46:05;;;;;;;0.00;0.00;;;35.80;27.80;;;;;;5085005;28;20043;-74
2022/07/03 03:48:35;;;;;;;0.55;0.55;;;36.20;27.90;;;;;;5066872;28;20486;-75
2022/07/03 03:51:04;;;;;;;0.00;0.00;;;36.90;27.80;;;;;;5078622;28;20031;-76
2022/07/03 03:53:30;;;;;;;0.38;0.32;;;36.40;28.70;;;;;;5076495;28;20016;-75
2022/07/03 03:56:05;;;;;;;8.82;1.45;;;36.60;29.40;;;;;;5091913;28;20099;-74
2022/07/03 03:58:33;;;;;;;1.75;0.63;;;36.20;29.70;;;;;;5082628;28;20359;-74
2022/07/03 04:01:02;;;;;;;0.00;0.00;;;35.90;28.80;;;;;;5075982;28;20012;-75
2022/07/03 04:03:29;;;;;;;0.43;0.35;;;35.20;29.20;;;;;;5095096;28;20559;-75
2022/07/03 04:05:56;;;;;;;6.40;5.95;;;34.50;30.00;;;;;;5095103;28;20028;-74
2022/07/03 04:08:23;;;;;;;0.15;0.10;;;34.30;30.40;;;;;;5094984;28;20046;-74
2022/07/03 04:10:49;;;;;;;0.05;0.05;;;33.70;31.20;;;;;;5094661;28;20363;-75
2022/07/03 04:13:16;;;;;;;1.60;1.55;;;33.40;31.10;;;;;;5076181;28;20035;-75
2022/07/03 04:15:43;;;;;;;0.00;0.00;;;33.40;31.00;;;;;;5076186;28;20379;-75
2022/07/03 04:18:09;;;;;;;3.83;0.32;;;33.10;31.20;;;;;;5076640;28;20579;-75
2022/07/03 04:20:35;;;;;;;0.32;0.10;;;33.20;30.50;;;;;;5095174;28;20498;-74
2022/07/03 04:23:01;;;;;;;1.65;1.08;;;33.00;30.70;;;;;;5094857;28;20047;-74
2022/07/03 04:25:28;;;;;;;1.63;1.42;;;32.90;31.00;;;;;;5076685;28;20115;-73
2022/07/03 04:27:54;;;;;;;0.32;0.32;;;32.70;30.30;;;;;;5094760;28;20527;-74
2022/07/03 04:30:20;;;;;;;0.43;0.43;;;32.20;31.70;;;;;;5094618;28;20073;-75
2022/07/03 04:32:47;;;;;;;0.00;0.00;;;32.30;30.20;;;;;;5076458;28;20375;-75
2022/07/03 04:35:14;;;;;;;0.00;0.00;;;32.30;32.50;;;;;;5076157;28;20028;-75
2022/07/03 04:37:41;;;;;;;2.67;0.65;;;32.30;30.90;;;;;;5094572;28;20478;-75
2022/07/03 04:40:07;;;;;;;0.00;0.00;;;32.30;31.50;;;;;;5076345;28;20032;-75
2022/07/03 04:42:33;;;;;;;0.10;0.10;;;32.30;31.20;;;;;;5087780;28;20021;-75
2022/07/03 04:45:00;;;;;;;5.38;0.65;;;32.30;31.90;;;;;;5082952;28;20104;-75
2022/07/03 04:47:26;;;;;;;0.00;0.00;;;32.60;30.90;;;;;;5074589;28;20162;-75
2022/07/03 04:49:52;;;;;;;0.22;0.22;;;32.70;30.50;;;;;;5077864;28;20090;-74
2022/07/03 04:52:18;;;;;;;0.15;0.15;;;32.90;29.80;;;;;;5081086;28;20479;-74
2022/07/03 04:54:44;;;;;;;2.20;1.30;;;32.30;29.20;;;;;;5086279;28;20032;-75
2022/07/03 04:57:10;;;;;;;1.20;0.98;;;32.20;29.00;;;;;;5079064;28;20032;-74
2022/07/03 04:59:36;;;;;;;0.00;0.00;;;32.30;28.40;;;;;;5062013;28;20043;-75
2022/07/03 05:02:02;;;;;;;0.00;0.00;;;32.30;28.20;;;;;;5055997;28;20028;-75
2022/07/03 05:04:28;;;;;;;0.50;0.45;;;32.70;28.50;;;;;;5073878;28;20562;-75
2022/07/03 05:06:55;;;;;;;0.08;0.08;;;32.80;29.20;;;;;;5073547;28;20099;-75
2022/07/03 05:09:21;;;;;;;0.17;0.17;;;32.80;28.90;;;;;;5056072;28;20024;-74
2022/07/03 05:11:47;;;;;;;0.20;0.20;;;32.80;28.10;;;;;;5073798;28;20031;-74
2022/07/03 05:14:13;;;;;;;0.45;0.38;;;32.80;27.40;;;;;;5091673;28;20024;-75
2022/07/03 05:16:39;;;;;;;5.05;0.98;;;32.70;27.40;;;;;;5092620;28;20047;-75
2022/07/03 05:19:05;;;;;;;0.00;0.00;;;33.00;26.90;;;;;;5114110;28;20076;-75
2022/07/03 05:21:31;;;;;;;1.60;0.47;;;32.80;27.10;;;;;;5113998;28;20202;-74
2022/07/03 05:23:57;;;;;;;1.42;1.23;;;32.80;26.90;;;;;;5095317;28;20027;-74
2022/07/03 05:26:24;;;;;;;1.70;0.50;;;32.80;26.90;;;;;;5109343;28;20095;-74
2022/07/03 05:28:51;;;;;;;0.20;0.17;;;32.90;26.90;;;;;;5113653;28;20031;-75
2022/07/03 05:31:17;;;;;;;0.77;0.77;;;32.70;26.20;;;;;;5113826;28;20024;-74
2022/07/03 05:33:43;;;;;;;0.00;0.00;;;32.80;26.80;;;;;;5113532;28;20497;-75
2022/07/03 05:36:09;;;;;;;1.35;0.60;;;33.20;26.20;;;;;;5113508;28;20057;-74
2022/07/03 05:41:19;;;;;;;0.17;0.10;;;33.00;25.60;;;;;;5100244;27;20141;-73
2022/07/03 05:43:45;;;;;;;0.00;0.00;;;32.70;25.10;;;;;;5086306;28;20110;-73
2022/07/03 05:46:11;;;;;;;0.00;0.00;;;33.00;25.60;;;;;;5113535;28;20012;-73
2022/07/03 05:48:37;;;;;;;0.47;0.47;;;33.20;25.70;;;;;;5081110;27;20089;-74
2022/07/03 05:51:03;;;;;;;0.00;0.00;;;33.20;26.20;;;;;;5112298;28;20038;-74
2022/07/03 05:53:30;;;;;;;0.35;0.35;;;33.00;27.60;;;;;;5097824;28;20036;-74
2022/07/03 05:55:57;;;;;;;0.00;0.00;;;33.10;27.10;;;;;;5092285;28;20028;-74
2022/07/03 05:58:23;;;;;;;0.22;0.22;;;33.30;27.60;;;;;;5086345;28;20051;-75
2022/07/03 06:00:50;;;;;;;0.40;0.28;;;33.50;26.50;;;;;;5106884;28;20027;-73
2022/07/03 06:03:16;;;;;;;0.30;0.20;;;33.60;25.90;;;;;;5090039;28;20020;-75
2022/07/03 06:05:42;;;;;;;3.13;1.10;;;33.60;26.00;;;;;;5081955;28;20103;-73
2022/07/03 06:08:08;;;;;;;0.00;0.00;;;33.50;24.70;;;;;;5089008;27;20517;-74
2022/07/03 06:10:34;;;;;;;0.00;0.00;;;33.40;24.80;;;;;;5097504;27;20038;-74
2022/07/03 06:13:01;;;;;;;5.82;2.72;;;33.30;25.10;;;;;;5104539;28;20028;-75
2022/07/03 06:15:27;;;;;;;0.00;0.00;;;33.10;26.10;;;;;;5093663;28;20082;-74
2022/07/03 06:17:53;;;;;;;8.93;0.93;;;33.20;26.90;;;;;;5088201;28;20024;-75
2022/07/03 06:20:19;;;;;;;0.45;0.28;;;33.10;26.00;;;;;;5077648;28;20070;-76
2022/07/03 06:22:45;;;;;;;0.40;0.38;;;33.20;25.40;;;;;;5099024;28;20017;-74
2022/07/03 06:25:12;;;;;;;0.20;0.08;;;33.20;25.70;;;;;;5104650;28;20078;-75
2022/07/03 06:27:38;;;;;;;0.47;0.47;;;33.10;27.00;;;;;;5087408;28;20020;-75
2022/07/03 06:30:05;;;;;;;0.00;0.00;;;33.00;26.10;;;;;;5122565;27;20058;-76
2022/07/03 06:32:31;;;;;;;0.63;0.57;;;33.20;26.10;;;;;;5103156;27;20037;-75
2022/07/03 06:34:57;;;;;;;0.00;0.00;;;33.20;26.00;;;;;;5101004;28;20028;-73
2022/07/03 06:37:23;;;;;;;1.13;0.70;;;33.30;26.10;;;;;;5094156;28;20039;-75
2022/07/03 06:39:49;;;;;;;0.13;0.10;;;33.20;25.50;;;;;;5112194;28;20073;-73
2022/07/03 06:42:15;;;;;;;0.75;0.75;;;33.20;25.20;;;;;;5111811;28;20024;-74
2022/07/03 06:44:41;;;;;;;0.00;0.00;;;33.00;24.70;;;;;;5116176;28;20135;-74
2022/07/03 06:47:07;;;;;;;0.63;0.63;;;33.10;25.20;;;;;;5110515;28;20055;-74
2022/07/03 06:49:34;;;;;;;0.00;0.00;;;33.30;25.20;;;;;;5116366;28;20019;-74
2022/07/03 06:52:01;;;;;;;0.80;0.57;;;33.80;25.40;;;;;;5117878;28;20031;-75
2022/07/03 06:54:27;;;;;;;0.30;0.30;;;33.60;25.00;;;;;;5111381;28;20040;-76
2022/07/03 06:56:53;;;;;;;2.15;0.70;;;33.60;25.10;;;;;;5092180;28;20021;-76
2022/07/03 06:59:19;;;;;;;0.30;0.30;;;33.50;25.40;;;;;;5092212;28;20222;-76
2022/07/03 07:01:45;;;;;;;0.40;0.30;;;33.40;26.10;;;;;;5072847;28;20107;-76
2022/07/03 07:04:11;;;;;;;0.00;0.00;;;33.20;25.10;;;;;;5091696;28;20102;-76
2022/07/03 07:06:37;;;;;;;0.20;0.20;;;33.00;25.20;;;;;;5090920;28;20020;-76
2022/07/03 07:09:04;;;;;;;1.95;0.30;;;33.10;25.60;;;;;;5092036;28;20055;-75
2022/07/03 07:11:31;;;;;;;1.08;1.08;;;33.50;24.50;;;;;;5103675;28;20377;-76
2022/07/03 07:13:57;;;;;;;0.00;0.00;;;33.50;24.00;;;;;;5112851;28;20020;-72
2022/07/03 07:16:23;;;;;;;0.00;0.00;;;33.50;24.40;;;;;;5099122;28;20048;-75
2022/07/03 07:18:49;;;;;;;1.13;0.68;;;33.60;24.70;;;;;;5095634;28;20149;-73
2022/07/03 07:21:15;;;;;;;0.30;0.30;;;34.00;24.80;;;;;;5077424;28;20020;-74
2022/07/03 07:23:41;;;;;;;1.23;0.57;;;34.10;24.90;;;;;;5095152;28;20517;-74
2022/07/03 07:26:07;;;;;;;0.00;0.00;;;34.30;24.20;;;;;;5104895;28;20032;-75
2022/07/03 07:28:34;;;;;;;0.00;0.00;;;34.40;23.90;;;;;;5095619;28;20367;-74
2022/07/03 07:31:01;;;;;;;1.25;1.17;;;34.50;23.60;;;;;;5099035;28;20074;-74
2022/07/03 07:33:27;;;;;;;0.00;0.00;;;33.70;25.30;;;;;;5089732;28;20484;-73
2022/07/03 07:35:53;;;;;;;0.30;0.10;;;33.50;25.50;;;;;;5108579;28;20131;-73
2022/07/03 07:38:20;;;;;;;11.73;4.88;;;33.80;25.50;;;;;;5092768;28;20545;-74
2022/07/03 07:40:46;;;;;;;0.20;0.20;;;33.80;25.80;;;;;;5088126;28;20092;-75
2022/07/03 07:43:14;;;;;;;5.85;2.50;;;33.80;25.60;;;;;;5088230;28;20024;-74
2022/07/03 07:45:40;;;;;;;4.35;1.23;;;34.30;24.40;;;;;;5108540;28;20022;-74
2022/07/03 07:48:07;;;;;;;0.70;0.60;;;34.10;25.40;;;;;;5090727;28;20474;-74
2022/07/03 07:50:33;;;;;;;0.30;0.20;;;33.80;25.00;;;;;;5110897;27;20359;-75
2022/07/03 07:52:59;;;;;;;34.55;5.30;;;34.00;24.70;;;;;;5112003;27;20043;-75
2022/07/03 07:55:25;;;;;;;4.20;2.75;;;34.00;24.60;;;;;;5088540;28;20470;-76
2022/07/03 07:57:51;;;;;;;0.03;0.00;;;33.80;25.20;;;;;;5092987;28;20441;-75
2022/07/03 08:00:19;;;;;;;1.45;1.20;;;34.20;25.50;;;;;;5096896;28;20020;-75
2022/07/03 08:05:37;;;;;;;0.00;0.00;;;34.70;23.60;;;;;;5112455;28;20077;-75
2022/07/03 08:08:07;;;;;;;3.30;2.22;;;34.60;23.20;;;;;;5097304;28;20023;-76
2022/07/03 08:10:35;;;;;;;2.58;1.05;;;34.70;23.20;;;;;;5096042;28;20027;-75
2022/07/03 08:13:01;;;;;;;0.55;0.55;;;34.70;24.90;;;;;;5100368;28;20032;-76
2022/07/03 08:15:27;;;;;;;0.00;0.00;;;34.40;24.00;;;;;;5106433;28;20055;-77
2022/07/03 08:17:53;;;;;;;0.63;0.60;;;34.00;23.90;;;;;;5106253;28;20024;-75
2022/07/03 08:20:22;;;;;;;2.00;1.38;;;34.10;24.30;;;;;;5093970;28;20039;-75
2022/07/03 08:22:49;;;;;;;0.00;0.00;;;34.30;24.30;;;;;;5115608;28;20043;-76
2022/07/03 08:25:15;;;;;;;3.72;1.08;;;34.40;23.90;;;;;;5118562;27;20023;-74
2022/07/03 08:27:41;;;;;;;8.65;3.85;;;34.80;25.00;;;;;;5097503;28;20512;-75
2022/07/03 08:30:08;;;;;;;0.40;0.40;;;34.70;25.00;;;;;;5113265;28;20019;-75
2022/07/03 08:32:34;;;;;;;0.20;0.20;;;34.60;24.50;;;;;;5105792;28;20036;-74
2022/07/03 08:35:00;;;;;;;0.00;0.00;;;34.70;24.20;;;;;;5107620;27;20102;-75
2022/07/03 08:37:28;;;;;;;0.15;0.15;;;34.70;24.00;;;;;;5105497;27;20559;-75
2022/07/03 08:39:54;;;;;;;0.00;0.00;;;34.80;24.40;;;;;;5093427;28;20027;-75
2022/07/03 08:42:23;;;;;;;0.95;0.57;;;34.80;24.20;;;;;;5096280;28;20020;-75
2022/07/03 08:44:51;;;;;;;0.10;0.10;;;35.00;24.60;;;;;;5096617;28;20065;-75
2022/07/03 08:47:18;;;;;;;0.00;0.00;;;35.00;24.20;;;;;;5088402;28;20097;-75
2022/07/03 08:49:46;;;;;;;0.20;0.20;;;34.80;23.60;;;;;;5109917;28;20488;-75
2022/07/03 08:52:13;;;;;;;2.78;2.50;;;35.00;24.00;;;;;;5112437;28;20035;-75
2022/07/03 08:54:39;;;;;;;1.55;1.00;;;35.10;23.40;;;;;;5113013;28;20107;-75
2022/07/03 08:57:06;;;;;;;0.25;0.25;;;35.30;24.20;;;;;;5106521;28;20073;-75
2022/07/03 08:59:39;;;;;;;0.00;0.00;;;35.40;24.00;;;;;;5108079;28;20020;-75
2022/07/03 09:02:06;;;;;;;0.10;0.10;;;35.40;23.40;;;;;;5105750;28;20121;-75
2022/07/03 09:04:35;;;;;;;0.15;0.15;;;35.30;23.70;;;;;;5109530;28;20113;-75
2022/07/03 09:07:01;;;;;;;3.63;3.33;;;35.30;23.80;;;;;;5092190;28;20030;-74
2022/07/03 09:09:28;;;;;;;0.35;0.28;;;34.70;24.20;;;;;;5112666;28;20058;-75
2022/07/03 09:11:54;;;;;;;0.45;0.35;;;34.60;24.60;;;;;;5111406;28;20035;-75
2022/07/03 09:14:20;;;;;;;0.17;0.15;;;34.80;24.30;;;;;;5106091;28;20027;-75
2022/07/03 09:16:46;;;;;;;0.28;0.25;;;34.80;23.80;;;;;;5090828;28;20046;-75
2022/07/03 09:19:12;;;;;;;2.72;1.50;;;34.90;23.20;;;;;;5092708;28;20042;-75
2022/07/03 09:21:40;;;;;;;0.20;0.13;;;34.80;23.30;;;;;;5075316;28;20382;-76
2022/07/03 09:24:10;;;;;;;1.75;1.65;;;34.60;23.20;;;;;;5091342;28;20012;-75
2022/07/03 09:26:50;;;;;;;0.20;0.10;;;34.90;23.10;;;;;;5088994;28;20027;-75
2022/07/03 09:29:16;;;;;;;0.00;0.00;;;34.80;23.70;;;;;;5088297;28;20028;-76
2022/07/03 09:31:42;;;;;;;0.75;0.75;;;35.20;23.30;;;;;;5091572;28;20034;-76
2022/07/03 09:34:08;;;;;;;0.10;0.10;;;35.30;24.00;;;;;;5092868;28;20387;-76
2022/07/03 09:36:45;;;;;;;0.00;0.00;;;35.20;23.60;;;;;;5091828;28;20514;-76
2022/07/03 09:39:24;;;;;;;0.00;0.00;;;35.10;23.60;;;;;;5086308;28;20028;-76
2022/07/03 09:42:01;;;;;;;6.45;6.03;;;35.30;23.60;;;;;;5071496;28;20153;-77
2022/07/03 09:44:41;;;;;;;0.00;0.00;;;35.50;23.60;;;;;;5063031;28;20043;-76
2022/07/03 09:47:14;;;;;;;0.00;0.00;;;35.50;23.00;;;;;;5086317;28;20026;-76
2022/07/03 09:49:59;;;;;;;0.00;0.00;;;35.40;23.30;;;;;;5065910;28;20072;-77
2022/07/03 09:52:44;;;;;;;0.00;0.00;;;35.30;24.20;;;;;;5085252;28;20433;-76
2022/07/03 09:55:10;;;;;;;5.18;4.30;;;35.60;23.90;;;;;;5089650;28;20033;-76
2022/07/03 09:57:52;;;;;;;0.00;0.00;;;35.50;23.90;;;;;;5087956;28;20031;-76
2022/07/03 10:00:26;;;;;;;0.17;0.03;;;35.20;23.60;;;;;;5084646;28;20035;-76
2022/07/03 10:03:04;;;;;;;0.80;0.32;;;35.10;24.00;;;;;;5089736;28;20076;-76
2022/07/03 10:05:32;;;;;;;1.95;1.27;;;35.10;23.50;;;;;;5089179;28;20028;-77
2022/07/03 10:08:10;;;;;;;0.00;0.00;;;34.80;23.70;;;;;;5075124;28;20025;-76
2022/07/03 10:10:42;;;;;;;0.00;0.00;;;34.70;23.60;;;;;;5078966;28;20028;-77
2022/07/03 10:13:09;;;;;;;0.40;0.40;;;34.70;23.70;;;;;;5100626;28;20023;-77
2022/07/03 10:15:37;;;;;;;0.65;0.65;;;34.70;23.70;;;;;;5081987;28;20044;-77
2022/07/03 10:18:06;;;;;;;0.00;0.00;;;34.60;24.30;;;;;;5088938;28;20402;-77
2022/07/03 10:20:40;;;;;;;0.25;0.25;;;34.50;24.40;;;;;;5084271;28;20036;-77
2022/07/03 10:23:06;;;;;;;1.08;0.70;;;34.50;24.10;;;;;;5088725;28;20099;-77
2022/07/03 10:25:33;;;;;;;0.00;0.00;;;34.40;23.80;;;;;;5088140;28;20016;-77
2022/07/03 10:28:00;;;;;;;0.75;0.75;;;34.20;24.50;;;;;;5069397;28;20024;-77
2022/07/03 10:30:26;;;;;;;0.00;0.00;;;34.20;23.80;;;;;;5089442;28;20395;-77
2022/07/03 10:32:54;;;;;;;0.25;0.25;;;34.40;24.10;;;;;;5086096;28;20028;-77
2022/07/03 10:35:25;;;;;;;0.75;0.75;;;34.20;24.40;;;;;;5086894;28;20039;-77
2022/07/03 10:38:07;;;;;;;0.00;0.00;;;34.30;24.40;;;;;;5086217;28;20032;-77
2022/07/03 10:46:40;;;;;;;0.68;0.40;;;34.40;24.10;;;;;;5089207;28;20508;-76
2022/07/03 10:49:11;;;;;;;0.75;0.75;;;34.50;24.30;;;;;;5084343;28;20085;-76
2022/07/03 10:52:00;;;;;;;1.10;1.10;;;34.50;24.50;;;;;;5083096;28;20034;-75
2022/07/03 10:54:27;;;;;;;0.00;0.00;;;34.10;25.00;;;;;;5087734;28;20492;-76
2022/07/03 10:57:16;;;;;;;1.25;1.13;;;34.10;25.00;;;;;;5073883;28;20020;-77
2022/07/03 10:59:45;;;;;;;0.00;0.00;;;34.20;24.50;;;;;;5083701;28;20042;-76
2022/07/03 11:02:37;;;;;;;0.15;0.10;;;34.40;24.30;;;;;;5090479;28;20024;-77
2022/07/03 11:05:03;;;;;;;2.08;0.75;;;34.40;24.50;;;;;;5088721;28;20016;-78
2022/07/03 11:07:56;;;;;;;1.27;1.15;;;34.40;25.10;;;;;;5091501;28;20031;-78
2022/07/03 11:10:25;;;;;;;0.00;0.00;;;34.10;25.30;;;;;;5065423;28;20434;-77
2022/07/03 11:13:00;;;;;;;0.10;0.10;;;34.30;25.90;;;;;;5086826;28;20478;-78
2022/07/03 11:15:44;;;;;;;5.03;2.75;;;34.40;25.10;;;;;;5094188;28;20051;-77
2022/07/03 11:18:18;;;;;;;0.65;0.65;;;34.30;24.70;;;;;;5092169;28;20059;-77
2022/07/03 11:20:44;;;;;;;0.45;0.45;;;34.40;24.30;;;;;;5086950;28;20042;-77
2022/07/03 11:23:10;;;;;;;0.43;0.43;;;34.30;24.50;;;;;;5108522;28;20019;-76
2022/07/03 11:25:44;;;;;;;1.55;0.40;;;33.80;25.50;;;;;;5106388;28;20099;-77
2022/07/03 11:28:34;;;;;;;2.40;0.90;;;33.90;25.30;;;;;;5111529;28;20051;-77
2022/07/03 11:31:15;;;;;;;0.32;0.30;;;34.10;24.90;;;;;;5106738;28;20096;-74
2022/07/03 11:33:54;;;;;;;2.92;0.55;;;34.10;24.80;;;;;;5109908;28;20019;-74
2022/07/03 11:36:26;;;;;;;0.00;0.00;;;34.30;24.60;;;;;;5107333;28;20024;-76
2022/07/03 11:38:57;;;;;;;0.13;0.13;;;34.50;24.60;;;;;;5110697;28;20062;-76
2022/07/03 11:41:25;;;;;;;0.95;0.95;;;34.60;24.80;;;;;;5089161;28;20043;-75
2022/07/03 11:44:04;;;;;;;0.70;0.60;;;34.40;24.70;;;;;;5108427;28;20035;-75
2022/07/03 11:46:36;;;;;;;1.42;1.00;;;34.40;24.70;;;;;;5101003;28;20031;-78
2022/07/03 11:49:05;;;;;;;0.93;0.93;;;34.40;24.20;;;;;;5107621;28;20032;-76
2022/07/03 11:51:31;;;;;;;0.45;0.20;;;34.40;24.30;;;;;;5094002;28;20099;-76
2022/07/03 11:53:57;;;;;;;0.10;0.10;;;34.30;24.50;;;;;;5097010;28;20049;-75
2022/07/03 11:56:24;;;;;;;0.47;0.47;;;34.40;24.30;;;;;;5112434;28;20073;-76
2022/07/03 11:58:56;;;;;;;0.65;0.65;;;34.30;24.30;;;;;;5112395;28;20035;-76
2022/07/03 12:01:22;;;;;;;0.00;0.00;;;34.40;24.80;;;;;;5114237;28;20051;-76
2022/07/03 12:03:48;;;;;;;3.20;1.20;;;34.30;25.40;;;;;;5089309;28;20028;-76
2022/07/03 12:06:15;;;;;;;0.65;0.47;;;34.30;24.90;;;;;;5100903;28;20024;-75
2022/07/03 12:08:45;;;;;;;0.77;0.73;;;34.60;24.70;;;;;;5088455;28;20027;-76
2022/07/03 12:11:13;;;;;;;0.00;0.00;;;34.30;25.70;;;;;;5097047;28;20027;-77
2022/07/03 12:13:40;;;;;;;18.52;7.43;;;34.10;25.80;;;;;;5105231;27;20036;-77
2022/07/03 12:16:08;;;;;;;0.00;0.00;;;34.10;25.60;;;;;;5110020;28;20135;-75
2022/07/03 12:18:45;;;;;;;0.00;0.00;;;34.20;26.30;;;;;;5103685;28;20060;-75
2022/07/03 12:21:12;;;;;;;0.00;0.00;;;34.30;25.40;;;;;;5082018;28;20043;-75
2022/07/03 12:23:58;;;;;;;0.00;0.00;;;34.10;25.30;;;;;;5084572;28;20031;-75
2022/07/03 12:26:32;;;;;;;8.18;7.82;;;34.10;25.60;;;;;;5108295;28;20082;-75
2022/07/03 12:29:00;;;;;;;0.00;0.00;;;34.30;25.70;;;;;;5115041;28;20024;-78
2022/07/03 12:31:28;;;;;;;0.00;0.00;;;34.60;26.10;;;;;;5110473;27;20028;-79
2022/07/03 12:33:55;;;;;;;0.00;0.00;;;34.80;26.00;;;;;;5089523;27;20030;-79
2022/07/03 12:36:21;;;;;;;0.00;0.00;;;34.90;25.80;;;;;;5126908;28;20028;-77
2022/07/03 12:38:49;;;;;;;0.32;0.32;;;34.90;26.50;;;;;;5107262;28;20027;-77
2022/07/03 12:41:16;;;;;;;0.00;0.00;;;35.00;26.30;;;;;;5090837;28;20046;-77
2022/07/03 12:43:45;;;;;;;0.00;0.00;;;35.00;25.50;;;;;;5112079;27;20022;-78
2022/07/03 12:46:37;;;;;;;0.00;0.00;;;34.70;25.00;;;;;;5096382;28;20028;-78
2022/07/03 12:49:12;;;;;;;0.00;0.00;;;34.80;28.20;;;;;;5094286;28;20028;-77
2022/07/03 12:51:49;;;;;;;0.00;0.00;;;34.80;28.80;;;;;;5075601;28;20172;-78
2022/07/03 12:54:26;;;;;;;0.55;0.55;;;35.00;26.50;;;;;;5094000;28;20028;-77
2022/07/03 13:00:10;;;;;;;0.00;0.00;;;34.50;29.70;;;;;;5107957;28;20030;-78
2022/07/03 13:02:40;;;;;;;0.00;0.00;;;34.50;28.20;;;;;;5095583;28;20141;-77
2022/07/03 13:05:22;;;;;;;0.00;0.00;;;34.50;27.90;;;;;;5095464;28;20092;-75
2022/07/03 13:07:51;;;;;;;0.00;0.00;;;34.50;27.60;;;;;;5114424;28;20051;-77
2022/07/03 13:10:19;;;;;;;0.00;0.00;;;34.40;28.60;;;;;;5112205;28;20032;-77
2022/07/03 13:12:58;;;;;;;24.48;14.90;;;34.30;28.60;;;;;;5101269;28;20418;-75
2022/07/03 13:15:27;;;;;;;0.00;0.00;;;34.10;29.60;;;;;;5088137;28;20123;-74
2022/07/03 13:17:58;;;;;;;0.00;0.00;;;33.80;28.90;;;;;;5081993;28;20024;-75
2022/07/03 13:20:32;;;;;;;3.10;3.00;;;33.80;27.40;;;;;;5086534;28;20051;-74